Time;durP1;ratioP1;P1;durP2;ratioP2;P2;SDS_P1;SDS_P2;PMS_P1;PMS_P2;Temp;Humidity;BMP_temperature;BMP_pressure;BME280_temperature;BME280_humidity;BME280_pressure;Samples;Min_cycle;Max_cycle;Signal;HPM_P1;HPM_P2
2022/12/31 00:01:59;;;;;;;10.45;2.67;;;;;;;;;;5085290;28;20052;-61
2022/12/31 00:04:25;;;;;;;7.63;3.15;;;;;;;;;;5090672;28;20044;-61
2022/12/31 00:06:51;;;;;;;5.32;2.17;;;;;;;;;;5091204;28;20048;-61
2022/12/31 00:09:17;;;;;;;4.13;1.80;;;;;;;;;;5092153;28;20101;-61
2022/12/31 00:11:44;;;;;;;9.43;2.47;;;;;;;;;;5082731;28;20044;-61
2022/12/31 00:14:10;;;;;;;8.48;2.58;;;;;;;;;;5094633;28;20047;-61
2022/12/31 00:16:37;;;;;;;8.98;2.30;;;;;;;;;;5090584;28;20048;-61
2022/12/31 00:19:03;;;;;;;8.18;2.22;;;;;;;;;;5092553;28;20052;-61
2022/12/31 00:21:31;;;;;;;11.95;2.50;;;;;;;;;;5083858;28;20092;-61
2022/12/31 00:23:57;;;;;;;7.38;2.45;;;;;;;;;;5083499;28;20071;-61
2022/12/31 00:26:24;;;;;;;7.88;2.30;;;;;;;;;;5083733;28;20486;-61
2022/12/31 00:28:51;;;;;;;10.65;2.90;;;;;;;;;;5093048;28;20059;-61
2022/12/31 00:31:22;;;;;;;11.77;3.17;;;;;;;;;;5084047;28;20519;-61
2022/12/31 00:33:48;;;;;;;9.00;2.65;;;;;;;;;;5079792;28;20047;-61
2022/12/31 00:36:16;;;;;;;12.80;3.33;;;;;;;;;;5089983;28;20048;-61
2022/12/31 00:38:44;;;;;;;11.10;2.72;;;;;;;;;;5076313;28;20055;-61
2022/12/31 00:41:10;;;;;;;14.15;3.60;;;;;;;;;;5097940;28;20047;-61
2022/12/31 00:43:36;;;;;;;15.68;5.10;;;;;;;;;;5082609;28;20397;-61
2022/12/31 00:46:03;;;;;;;10.75;3.40;;;;;;;;;;5084247;28;20048;-61
2022/12/31 00:48:29;;;;;;;10.38;2.65;;;;;;;;;;5085475;28;20044;-61
2022/12/31 00:50:55;;;;;;;10.48;2.78;;;;;;;;;;5094918;28;20093;-61
2022/12/31 00:53:21;;;;;;;11.52;3.08;;;;;;;;;;5098040;28;20067;-61
2022/12/31 00:55:48;;;;;;;16.35;3.67;;;;;;;;;;5084350;28;20048;-61
2022/12/31 00:58:14;;;;;;;14.07;3.60;;;;;;;;;;5079288;28;20040;-61
2022/12/31 01:00:40;;;;;;;11.30;3.65;;;;;;;;;;5083342;28;20067;-61
2022/12/31 01:03:06;;;;;;;10.52;3.17;;;;;;;;;;5095921;28;20513;-61
2022/12/31 01:05:33;;;;;;;14.50;3.60;;;;;;;;;;5092971;28;20090;-61
2022/12/31 01:07:59;;;;;;;15.38;3.53;;;;;;;;;;5083161;28;20062;-61
2022/12/31 01:13:09;;;;;;;13.80;3.45;;;;;;;;;;5090598;28;20052;-61
2022/12/31 01:15:36;;;;;;;14.07;2.97;;;;;;;;;;5092687;28;20109;-61
2022/12/31 01:18:03;;;;;;;9.57;2.95;;;;;;;;;;5092932;28;20040;-61
2022/12/31 01:20:29;;;;;;;12.25;3.63;;;;;;;;;;5093274;28;20136;-61
2022/12/31 01:22:55;;;;;;;7.22;2.72;;;;;;;;;;5082794;28;20036;-61
2022/12/31 01:25:21;;;;;;;9.07;3.25;;;;;;;;;;5082651;28;20052;-61
2022/12/31 01:27:47;;;;;;;12.52;3.38;;;;;;;;;;5096497;28;20035;-61
2022/12/31 01:30:13;;;;;;;12.80;3.40;;;;;;;;;;5083291;28;20067;-62
2022/12/31 01:32:39;;;;;;;12.82;3.58;;;;;;;;;;5084883;28;20096;-61
2022/12/31 01:35:05;;;;;;;14.10;3.75;;;;;;;;;;5082855;28;20043;-62
2022/12/31 01:37:31;;;;;;;8.02;2.72;;;;;;;;;;5100535;28;20504;-61
2022/12/31 01:39:57;;;;;;;9.15;3.17;;;;;;;;;;5082503;28;20048;-61
2022/12/31 01:42:23;;;;;;;9.15;2.75;;;;;;;;;;5098821;28;20075;-61
2022/12/31 01:44:51;;;;;;;11.23;3.00;;;;;;;;;;5083191;28;20047;-61
2022/12/31 01:47:19;;;;;;;9.48;2.47;;;;;;;;;;5083205;28;20039;-61
2022/12/31 01:49:50;;;;;;;11.90;2.80;;;;;;;;;;5080832;28;20047;-61
2022/12/31 01:52:34;;;;;;;14.38;3.53;;;;;;;;;;5093328;28;20637;-61
2022/12/31 01:55:05;;;;;;;9.07;2.72;;;;;;;;;;5082276;28;20056;-61
2022/12/31 01:57:31;;;;;;;11.35;3.17;;;;;;;;;;5084760;28;20143;-61
2022/12/31 01:59:58;;;;;;;12.68;3.35;;;;;;;;;;5089756;28;20575;-61
2022/12/31 02:02:24;;;;;;;10.80;3.03;;;;;;;;;;5087313;28;20097;-61
2022/12/31 02:04:51;;;;;;;8.52;2.40;;;;;;;;;;5081275;28;20055;-61
2022/12/31 02:07:17;;;;;;;8.35;2.67;;;;;;;;;;5090061;28;20100;-61
2022/12/31 02:09:43;;;;;;;7.78;2.45;;;;;;;;;;5087775;28;20063;-61
2022/12/31 02:12:09;;;;;;;8.23;2.08;;;;;;;;;;5089071;28;20044;-61
2022/12/31 02:14:54;;;;;;;6.47;2.42;;;;;;;;;;5089010;28;20059;-61
2022/12/31 02:17:36;;;;;;;6.30;2.97;;;;;;;;;;5081872;28;20480;-61
2022/12/31 02:20:20;;;;;;;6.70;3.13;;;;;;;;;;5089215;28;20039;-61
2022/12/31 02:22:58;;;;;;;6.65;2.72;;;;;;;;;;5092305;28;20127;-61
2022/12/31 02:25:27;;;;;;;7.72;2.67;;;;;;;;;;5083317;28;20039;-61
2022/12/31 02:27:56;;;;;;;5.55;2.22;;;;;;;;;;5089089;28;20627;-61
2022/12/31 02:30:23;;;;;;;4.10;1.92;;;;;;;;;;5097042;28;20047;-61
2022/12/31 02:33:08;;;;;;;8.50;2.40;;;;;;;;;;5081734;28;20062;-61
2022/12/31 02:35:42;;;;;;;5.38;2.42;;;;;;;;;;5099151;28;20052;-61
2022/12/31 02:38:11;;;;;;;6.38;2.30;;;;;;;;;;5081851;28;20043;-61
2022/12/31 02:40:37;;;;;;;8.90;2.80;;;;;;;;;;5082208;28;20052;-61
2022/12/31 02:43:04;;;;;;;3.88;2.08;;;;;;;;;;5097761;28;20047;-61
2022/12/31 02:45:33;;;;;;;11.77;3.13;;;;;;;;;;5086408;28;20052;-61
2022/12/31 02:48:31;;;;;;;6.40;2.10;;;;;;;;;;5100492;28;20082;-61
2022/12/31 02:51:11;;;;;;;7.25;2.38;;;;;;;;;;5039026;28;20515;-61
2022/12/31 02:53:44;;;;;;;6.20;2.22;;;;;;;;;;5088083;28;20046;-61
2022/12/31 02:56:10;;;;;;;;;;;;;;;;;;5087332;28;20048;-61
2022/12/31 03:04:33;;;;;;;5.22;1.92;;;;;;;;;;5097424;28;20048;-61
2022/12/31 03:07:09;;;;;;;5.93;2.33;;;;;;;;;;5100647;28;21766;-61
2022/12/31 03:09:35;;;;;;;9.40;3.00;;;;;;;;;;5088228;28;20048;-61
2022/12/31 03:14:47;;;;;;;6.88;2.42;;;;;;;;;;5084432;28;20044;-61
2022/12/31 03:17:13;;;;;;;5.22;2.30;;;;;;;;;;5097575;28;20126;-61
2022/12/31 03:22:27;;;;;;;3.28;2.00;;;;;;;;;;5084825;28;20490;-61
2022/12/31 03:27:46;;;;;;;6.22;1.90;;;;;;;;;;5100590;28;20043;-61
2022/12/31 03:30:13;;;;;;;6.53;2.05;;;;;;;;;;5086823;28;20136;-61
2022/12/31 03:32:39;;;;;;;4.43;1.58;;;;;;;;;;5102838;28;20040;-62
2022/12/31 03:35:05;;;;;;;4.53;1.58;;;;;;;;;;5096008;28;20135;-62
2022/12/31 03:37:32;;;;;;;6.90;1.67;;;;;;;;;;5086656;28;20101;-61
2022/12/31 03:39:58;;;;;;;3.55;1.45;;;;;;;;;;5084191;28;20055;-61
2022/12/31 03:42:24;;;;;;;3.90;1.42;;;;;;;;;;5098137;28;20047;-61
2022/12/31 03:44:50;;;;;;;4.72;1.52;;;;;;;;;;5085555;28;20104;-62
2022/12/31 03:47:16;;;;;;;4.72;1.35;;;;;;;;;;5085463;28;20047;-61
2022/12/31 03:49:42;;;;;;;3.15;1.10;;;;;;;;;;5084285;28;20093;-61
2022/12/31 03:52:08;;;;;;;4.20;1.20;;;;;;;;;;5094137;28;20043;-61
2022/12/31 03:54:34;;;;;;;5.00;1.20;;;;;;;;;;5100163;28;20112;-61
2022/12/31 03:57:00;;;;;;;3.53;0.88;;;;;;;;;;5095037;28;20122;-61
2022/12/31 03:59:26;;;;;;;2.97;1.00;;;;;;;;;;5096229;28;20080;-61
2022/12/31 04:01:52;;;;;;;3.42;0.98;;;;;;;;;;5083655;28;20633;-61
2022/12/31 04:04:18;;;;;;;3.53;1.10;;;;;;;;;;5095224;28;20046;-61
2022/12/31 04:06:44;;;;;;;3.30;1.13;;;;;;;;;;5084127;28;20444;-61
2022/12/31 04:09:10;;;;;;;4.60;1.15;;;;;;;;;;5084775;28;20108;-61
2022/12/31 04:11:36;;;;;;;2.88;0.75;;;;;;;;;;5086864;28;20044;-61
2022/12/31 04:14:02;;;;;;;4.95;1.00;;;;;;;;;;5100111;28;20053;-61
2022/12/31 04:16:28;;;;;;;5.22;1.23;;;;;;;;;;5100376;28;20052;-61
2022/12/31 04:18:54;;;;;;;1.65;0.70;;;;;;;;;;5083810;28;20040;-61
2022/12/31 04:21:20;;;;;;;3.40;1.05;;;;;;;;;;5085726;28;20100;-61
2022/12/31 04:23:46;;;;;;;3.47;0.90;;;;;;;;;;5083446;28;20048;-61
2022/12/31 04:26:12;;;;;;;3.97;0.82;;;;;;;;;;5086035;28;20127;-61
2022/12/31 04:28:38;;;;;;;2.38;0.80;;;;;;;;;;5093035;28;20597;-61
2022/12/31 04:31:04;;;;;;;2.78;0.88;;;;;;;;;;5094644;28;20040;-61
2022/12/31 04:33:30;;;;;;;3.17;0.90;;;;;;;;;;5100882;28;20047;-61
2022/12/31 04:36:03;;;;;;;3.20;1.05;;;;;;;;;;5095530;28;20367;-61
2022/12/31 04:38:29;;;;;;;1.55;0.75;;;;;;;;;;5096528;28;20051;-61
2022/12/31 04:43:40;;;;;;;2.95;1.02;;;;;;;;;;5096974;28;20047;-61
2022/12/31 04:46:06;;;;;;;2.67;0.80;;;;;;;;;;5098432;28;20413;-61
2022/12/31 04:48:33;;;;;;;3.03;1.10;;;;;;;;;;5100585;28;20165;-61
2022/12/31 04:50:59;;;;;;;3.38;1.02;;;;;;;;;;5098592;28;20461;-61
2022/12/31 04:53:25;;;;;;;4.68;1.42;;;;;;;;;;5084538;28;20040;-61
2022/12/31 04:55:51;;;;;;;3.47;0.90;;;;;;;;;;5091861;28;20048;-61
2022/12/31 04:58:17;;;;;;;4.78;1.42;;;;;;;;;;5094190;28;20130;-61
2022/12/31 05:00:45;;;;;;;3.67;1.23;;;;;;;;;;5090108;28;20449;-61
2022/12/31 05:03:11;;;;;;;2.05;1.00;;;;;;;;;;5098014;28;20043;-61
2022/12/31 05:05:38;;;;;;;4.93;0.90;;;;;;;;;;5084793;28;20078;-61
2022/12/31 05:08:04;;;;;;;2.58;0.70;;;;;;;;;;5095344;28;20100;-61
2022/12/31 05:10:30;;;;;;;5.15;1.30;;;;;;;;;;5084101;28;20043;-61
2022/12/31 05:12:56;;;;;;;2.22;0.98;;;;;;;;;;5083794;28;20482;-61
2022/12/31 05:15:22;;;;;;;3.42;0.90;;;;;;;;;;5095381;28;20047;-61
2022/12/31 05:17:48;;;;;;;4.38;1.35;;;;;;;;;;5093886;28;20386;-61
2022/12/31 05:20:14;;;;;;;3.95;1.00;;;;;;;;;;5096811;28;20107;-61
2022/12/31 05:22:40;;;;;;;2.83;1.13;;;;;;;;;;5079175;28;20048;-61
2022/12/31 05:25:06;;;;;;;2.05;0.90;;;;;;;;;;5083673;28;20055;-61
2022/12/31 05:27:32;;;;;;;2.53;1.33;;;;;;;;;;5093422;28;20131;-61
2022/12/31 05:29:58;;;;;;;3.42;0.98;;;;;;;;;;5095028;28;20109;-61
2022/12/31 05:32:24;;;;;;;5.57;1.45;;;;;;;;;;5093141;28;20047;-61
2022/12/31 05:34:52;;;;;;;1.98;1.23;;;;;;;;;;5095713;28;20051;-61
2022/12/31 05:37:18;;;;;;;3.10;1.48;;;;;;;;;;5090752;28;20055;-61
2022/12/31 05:39:44;;;;;;;2.00;0.88;;;;;;;;;;5095453;28;20046;-61
2022/12/31 05:42:10;;;;;;;3.67;1.15;;;;;;;;;;5082794;28;20040;-61
2022/12/31 05:44:36;;;;;;;3.50;0.80;;;;;;;;;;5100627;28;20051;-61
2022/12/31 05:47:02;;;;;;;5.00;1.20;;;;;;;;;;5097953;28;20047;-61
2022/12/31 05:49:28;;;;;;;5.78;1.88;;;;;;;;;;5098593;28;20426;-61
2022/12/31 05:51:54;;;;;;;1.83;0.80;;;;;;;;;;5097413;28;20039;-61
2022/12/31 05:54:20;;;;;;;2.72;1.77;;;;;;;;;;5082295;28;20443;-61
2022/12/31 05:56:46;;;;;;;3.88;1.27;;;;;;;;;;5096735;28;20045;-61
2022/12/31 05:59:12;;;;;;;3.33;1.40;;;;;;;;;;5082651;28;20497;-61
2022/12/31 06:01:38;;;;;;;7.60;1.63;;;;;;;;;;5093529;28;20040;-61
2022/12/31 06:04:04;;;;;;;2.22;1.27;;;;;;;;;;5097602;28;20090;-61
2022/12/31 06:06:30;;;;;;;3.53;1.25;;;;;;;;;;5099315;28;20060;-61
2022/12/31 06:08:56;;;;;;;5.35;1.40;;;;;;;;;;5097119;28;20607;-61
2022/12/31 06:11:23;;;;;;;2.63;1.05;;;;;;;;;;5083737;28;20063;-61
2022/12/31 06:13:49;;;;;;;2.22;0.63;;;;;;;;;;5094602;28;20115;-61
2022/12/31 06:16:15;;;;;;;2.25;1.23;;;;;;;;;;5083267;28;20126;-61
2022/12/31 06:18:41;;;;;;;3.08;1.65;;;;;;;;;;5082639;28;20490;-61
2022/12/31 06:21:07;;;;;;;14.05;1.67;;;;;;;;;;5098681;28;21080;-61
2022/12/31 06:23:33;;;;;;;2.40;1.05;;;;;;;;;;5099052;28;20075;-61
2022/12/31 06:26:03;;;;;;;1.73;1.00;;;;;;;;;;5086236;28;20083;-61
2022/12/31 06:28:29;;;;;;;3.00;1.13;;;;;;;;;;5088392;28;20108;-61
2022/12/31 06:30:59;;;;;;;2.78;1.00;;;;;;;;;;5097152;28;20059;-61
2022/12/31 06:33:25;;;;;;;3.38;1.30;;;;;;;;;;5102200;28;20490;-61
2022/12/31 06:35:54;;;;;;;3.10;1.27;;;;;;;;;;5098453;28;20314;-61
2022/12/31 06:38:20;;;;;;;2.85;1.05;;;;;;;;;;5087111;28;20130;-61
2022/12/31 06:40:46;;;;;;;2.60;1.30;;;;;;;;;;5100058;28;20119;-61
2022/12/31 06:43:12;;;;;;;1.52;1.20;;;;;;;;;;5087393;28;20595;-61
2022/12/31 06:45:38;;;;;;;2.55;1.10;;;;;;;;;;5098574;28;20044;-60
2022/12/31 06:48:05;;;;;;;1.70;1.10;;;;;;;;;;5099051;28;20043;-60
2022/12/31 06:50:31;;;;;;;1.05;0.70;;;;;;;;;;5087022;28;20047;-60
2022/12/31 06:52:57;;;;;;;1.27;0.73;;;;;;;;;;5101686;28;20097;-60
2022/12/31 06:55:23;;;;;;;3.70;1.23;;;;;;;;;;5102229;28;20055;-60
2022/12/31 06:57:49;;;;;;;1.85;0.98;;;;;;;;;;5099589;28;20031;-60
2022/12/31 07:00:15;;;;;;;1.30;0.95;;;;;;;;;;5100351;28;20539;-61
2022/12/31 07:02:50;;;;;;;1.08;0.98;;;;;;;;;;5082908;28;20604;-61
2022/12/31 07:05:19;;;;;;;2.75;1.60;;;;;;;;;;5079880;28;20047;-61
2022/12/31 07:07:49;;;;;;;2.70;1.38;;;;;;;;;;5091128;28;20105;-60
2022/12/31 07:10:27;;;;;;;1.42;0.80;;;;;;;;;;5100127;28;20094;-60
2022/12/31 07:12:56;;;;;;;1.02;0.85;;;;;;;;;;5084407;28;20052;-60
2022/12/31 07:15:28;;;;;;;2.58;1.70;;;;;;;;;;5097138;28;20104;-60
2022/12/31 07:18:03;;;;;;;1.90;0.90;;;;;;;;;;5095786;28;20043;-60
2022/12/31 07:20:29;;;;;;;3.53;1.30;;;;;;;;;;5084385;28;20072;-60
2022/12/31 07:22:56;;;;;;;1.63;1.52;;;;;;;;;;5086532;28;20055;-60
2022/12/31 07:25:22;;;;;;;2.40;1.25;;;;;;;;;;5086026;28;20440;-60
2022/12/31 07:27:54;;;;;;;1.65;1.10;;;;;;;;;;5096133;28;20163;-60
2022/12/31 07:30:20;;;;;;;2.13;0.80;;;;;;;;;;5096694;28;20058;-60
2022/12/31 07:32:46;;;;;;;0.70;0.70;;;;;;;;;;5086660;28;20044;-60
2022/12/31 07:35:21;;;;;;;2.15;0.80;;;;;;;;;;5084827;28;20100;-61
2022/12/31 07:37:59;;;;;;;1.42;0.95;;;;;;;;;;5078602;28;20105;-61
2022/12/31 07:40:37;;;;;;;1.05;0.85;;;;;;;;;;5097761;28;20516;-60
2022/12/31 07:43:22;;;;;;;0.85;0.75;;;;;;;;;;5085177;28;20060;-60
2022/12/31 07:45:48;;;;;;;0.70;0.70;;;;;;;;;;5100221;28;20044;-60
2022/12/31 07:48:21;;;;;;;1.35;0.85;;;;;;;;;;5094396;28;20028;-60
2022/12/31 07:50:47;;;;;;;1.10;0.85;;;;;;;;;;5096752;28;20088;-60
2022/12/31 07:53:13;;;;;;;0.70;0.70;;;;;;;;;;5084351;28;20073;-60
2022/12/31 07:55:39;;;;;;;1.23;0.90;;;;;;;;;;5083274;28;20040;-60
2022/12/31 07:58:08;;;;;;;0.75;0.75;;;;;;;;;;5095375;28;20372;-60
2022/12/31 08:00:34;;;;;;;0.88;0.60;;;;;;;;;;5101211;28;20039;-60
2022/12/31 08:03:03;;;;;;;0.68;0.68;;;;;;;;;;5094182;28;20039;-61
2022/12/31 08:05:33;;;;;;;0.98;0.85;;;;;;;;;;5085212;28;20035;-60
2022/12/31 08:08:16;;;;;;;0.95;0.70;;;;;;;;;;5092255;28;20128;-60
2022/12/31 08:10:46;;;;;;;0.60;0.60;;;;;;;;;;5091306;28;20047;-60
2022/12/31 08:13:12;;;;;;;0.77;0.77;;;;;;;;;;5083404;28;20043;-60
2022/12/31 08:15:39;;;;;;;2.90;1.88;;;;;;;;;;5093089;28;20481;-60
2022/12/31 08:18:05;;;;;;;1.25;1.15;;;;;;;;;;5092060;28;20096;-60
2022/12/31 08:20:33;;;;;;;1.27;1.10;;;;;;;;;;5092749;28;20043;-62
2022/12/31 08:23:19;;;;;;;1.50;1.20;;;;;;;;;;5086421;28;20058;-60
2022/12/31 08:26:17;;;;;;;1.08;1.05;;;;;;;;;;5088148;28;20066;-61
2022/12/31 08:28:55;;;;;;;1.35;1.25;;;;;;;;;;5028732;28;20051;-61
2022/12/31 08:31:54;;;;;;;1.42;1.17;;;;;;;;;;5077914;28;20094;-61
2022/12/31 08:34:29;;;;;;;0.95;0.95;;;;;;;;;;5031454;28;20140;-61
2022/12/31 08:36:55;;;;;;;2.10;0.80;;;;;;;;;;5084034;28;20476;-61
2022/12/31 08:39:51;;;;;;;1.05;1.05;;;;;;;;;;5099451;28;20131;-61
2022/12/31 08:42:36;;;;;;;1.60;1.10;;;;;;;;;;5062408;28;20131;-62
2022/12/31 08:45:02;;;;;;;1.23;1.00;;;;;;;;;;5082024;28;20135;-61
2022/12/31 08:47:41;;;;;;;0.80;0.80;;;;;;;;;;5087094;28;20557;-61
2022/12/31 08:50:12;;;;;;;0.75;0.75;;;;;;;;;;5086168;28;20578;-61
2022/12/31 08:52:38;;;;;;;0.93;0.93;;;;;;;;;;5096805;28;20089;-62
2022/12/31 08:55:04;;;;;;;1.42;1.33;;;;;;;;;;5097701;28;20302;-60
2022/12/31 08:57:35;;;;;;;1.40;1.30;;;;;;;;;;5096153;28;20044;-61
2022/12/31 09:00:04;;;;;;;1.38;1.33;;;;;;;;;;5085942;28;20052;-61
2022/12/31 09:02:36;;;;;;;1.60;1.50;;;;;;;;;;5095342;28;20040;-60
2022/12/31 09:05:22;;;;;;;1.92;1.83;;;;;;;;;;5085360;28;20097;-62
2022/12/31 09:08:00;;;;;;;1.63;1.52;;;;;;;;;;5093800;28;20051;-67
2022/12/31 09:10:43;;;;;;;1.88;1.77;;;;;;;;;;5072884;28;20134;-61
2022/12/31 09:13:09;;;;;;;1.63;1.52;;;;;;;;;;5071203;28;20410;-61
2022/12/31 09:15:43;;;;;;;2.35;1.60;;;;;;;;;;5094713;28;20069;-61
2022/12/31 09:18:11;;;;;;;1.48;1.38;;;;;;;;;;5084354;28;20043;-61
2022/12/31 09:20:37;;;;;;;1.83;1.73;;;;;;;;;;5087408;28;20401;-61
2022/12/31 09:23:04;;;;;;;3.42;2.40;;;;;;;;;;5085787;28;20403;-61
2022/12/31 09:25:30;;;;;;;4.28;1.80;;;;;;;;;;5084643;28;20047;-62
2022/12/31 09:27:59;;;;;;;1.50;1.40;;;;;;;;;;5094956;28;20124;-61
2022/12/31 09:30:26;;;;;;;1.67;1.58;;;;;;;;;;5085487;28;20055;-62
2022/12/31 09:33:11;;;;;;;2.25;2.03;;;;;;;;;;5086282;28;20047;-61
2022/12/31 09:35:46;;;;;;;3.15;1.52;;;;;;;;;;5084717;28;20067;-61
2022/12/31 09:38:18;;;;;;;5.63;1.75;;;;;;;;;;5092021;28;20544;-62
2022/12/31 09:41:03;;;;;;;2.17;1.50;;;;;;;;;;5085830;28;20063;-61
2022/12/31 09:43:54;;;;;;;4.30;1.40;;;;;;;;;;5081632;28;20080;-61
2022/12/31 09:46:38;;;;;;;2.67;1.23;;;;;;;;;;5092517;28;20085;-61
2022/12/31 09:49:23;;;;;;;2.30;1.08;;;;;;;;;;5105018;28;20108;-61
2022/12/31 09:51:49;;;;;;;2.42;1.13;;;;;;;;;;5077320;28;20040;-61
2022/12/31 09:54:15;;;;;;;2.80;1.55;;;;;;;;;;5097041;28;20453;-61
2022/12/31 09:57:03;;;;;;;1.65;1.10;;;;;;;;;;5091505;28;20047;-61
2022/12/31 09:59:39;;;;;;;5.85;1.35;;;;;;;;;;5081122;28;20135;-61
2022/12/31 10:02:22;;;;;;;2.42;1.70;;;;;;;;;;5081683;28;20054;-61
2022/12/31 10:05:11;;;;;;;2.67;1.73;;;;;;;;;;5091689;28;20039;-60
2022/12/31 10:07:44;;;;;;;1.00;0.88;;;;;;;;;;5056816;28;20062;-61
2022/12/31 10:10:30;;;;;;;2.95;0.95;;;;;;;;;;5093567;28;20051;-61
2022/12/31 10:13:11;;;;;;;3.75;0.80;;;;;;;;;;5094179;28;20394;-60
2022/12/31 10:15:40;;;;;;;2.80;0.85;;;;;;;;;;5078247;28;20047;-60
2022/12/31 10:18:13;;;;;;;2.42;0.52;;;;;;;;;;5093534;28;20052;-60
2022/12/31 10:20:54;;;;;;;1.73;1.17;;;;;;;;;;5091144;28;20051;-61
2022/12/31 10:23:40;;;;;;;4.38;1.40;;;;;;;;;;5086713;28;20093;-60
2022/12/31 10:26:18;;;;;;;6.43;4.50;;;;;;;;;;5084971;28;20040;-61
2022/12/31 10:28:55;;;;;;;16.17;13.70;;;;;;;;;;5086405;28;20077;-61
2022/12/31 10:31:37;;;;;;;8.00;3.72;;;;;;;;;;5077100;28;20662;-61
2022/12/31 10:34:14;;;;;;;4.00;1.70;;;;;;;;;;5096560;28;20040;-61
2022/12/31 10:37:02;;;;;;;3.60;1.20;;;;;;;;;;5075657;28;20060;-60
2022/12/31 10:39:38;;;;;;;3.90;1.17;;;;;;;;;;5054673;28;20428;-61
2022/12/31 10:42:23;;;;;;;4.35;1.35;;;;;;;;;;5091562;28;20091;-61
2022/12/31 10:45:00;;;;;;;12.07;6.45;;;;;;;;;;5085329;28;20048;-61
2022/12/31 10:47:35;;;;;;;4.20;2.33;;;;;;;;;;5086812;28;20072;-61
2022/12/31 10:50:17;;;;;;;7.05;1.42;;;;;;;;;;5083577;28;20051;-61
2022/12/31 10:53:09;;;;;;;10.50;1.55;;;;;;;;;;5088728;28;20122;-61
2022/12/31 10:55:35;;;;;;;7.47;1.77;;;;;;;;;;5045623;28;20079;-61
2022/12/31 10:58:04;;;;;;;7.50;1.52;;;;;;;;;;5071707;28;20421;-61
2022/12/31 11:00:34;;;;;;;4.70;1.58;;;;;;;;;;5082401;28;20070;-61
2022/12/31 11:03:00;;;;;;;11.23;2.85;;;;;;;;;;5077752;28;20057;-62
2022/12/31 11:05:29;;;;;;;12.70;4.88;;;;;;;;;;5089873;28;20664;-62
2022/12/31 11:08:14;;;;;;;11.30;3.30;;;;;;;;;;5087342;28;20096;-61
2022/12/31 11:10:56;;;;;;;12.95;4.63;;;;;;;;;;5067014;28;20475;-61
2022/12/31 11:13:42;;;;;;;13.85;3.60;;;;;;;;;;5108170;28;20091;-61
2022/12/31 11:16:27;;;;;;;10.38;2.28;;;;;;;;;;5091484;28;20040;-61
2022/12/31 11:19:12;;;;;;;12.50;3.05;;;;;;;;;;5090603;28;20048;-61
2022/12/31 11:21:53;;;;;;;12.25;2.97;;;;;;;;;;5091091;28;20040;-62
2022/12/31 11:24:40;;;;;;;6.68;2.53;;;;;;;;;;5087348;28;20056;-61
2022/12/31 11:27:21;;;;;;;9.93;2.40;;;;;;;;;;5087436;28;20092;-62
2022/12/31 11:29:56;;;;;;;9.90;3.58;;;;;;;;;;5088989;28;20086;-61
2022/12/31 11:32:25;;;;;;;9.25;2.53;;;;;;;;;;5086230;28;20040;-61
2022/12/31 11:35:10;;;;;;;8.20;2.70;;;;;;;;;;5089142;28;20044;-61
2022/12/31 11:37:50;;;;;;;12.48;2.40;;;;;;;;;;5076406;28;20071;-61
2022/12/31 11:40:40;;;;;;;16.92;3.30;;;;;;;;;;5073518;28;20114;-61
2022/12/31 11:43:25;;;;;;;11.55;3.35;;;;;;;;;;5084769;28;20047;-61
2022/12/31 11:46:04;;;;;;;7.43;2.22;;;;;;;;;;5090180;28;20051;-61
2022/12/31 11:48:30;;;;;;;8.48;2.40;;;;;;;;;;5082071;28;20549;-61
2022/12/31 11:50:59;;;;;;;10.77;2.85;;;;;;;;;;5086905;28;20130;-61
2022/12/31 11:53:29;;;;;;;12.95;5.20;;;;;;;;;;5087731;28;20123;-61
2022/12/31 11:55:55;;;;;;;9.32;2.72;;;;;;;;;;5086912;28;20052;-61
2022/12/31 11:58:28;;;;;;;10.35;2.50;;;;;;;;;;5086770;28;20711;-61
2022/12/31 12:01:00;;;;;;;13.02;3.65;;;;;;;;;;5087784;28;20044;-61
2022/12/31 12:03:26;;;;;;;9.60;2.13;;;;;;;;;;5090226;28;20712;-61
2022/12/31 12:05:52;;;;;;;6.45;2.03;;;;;;;;;;5108451;28;20039;-61
2022/12/31 12:08:19;;;;;;;7.43;1.90;;;;;;;;;;5101961;28;20040;-61
2022/12/31 12:10:46;;;;;;;7.53;1.65;;;;;;;;;;5090120;28;20467;-61
2022/12/31 12:13:19;;;;;;;5.20;1.70;;;;;;;;;;5105883;28;20078;-61
2022/12/31 12:15:47;;;;;;;6.13;1.80;;;;;;;;;;5087569;28;20044;-62
2022/12/31 12:18:22;;;;;;;7.47;1.38;;;;;;;;;;5085337;28;20079;-61
2022/12/31 12:20:48;;;;;;;4.78;1.33;;;;;;;;;;5102114;28;20398;-61
2022/12/31 12:23:16;;;;;;;4.78;1.60;;;;;;;;;;5107560;28;20054;-61
2022/12/31 12:25:43;;;;;;;4.88;1.58;;;;;;;;;;5090104;28;20066;-62
2022/12/31 12:28:36;;;;;;;4.45;1.85;;;;;;;;;;5085386;28;20669;-62
2022/12/31 12:31:03;;;;;;;6.88;1.80;;;;;;;;;;5083991;28;20489;-61
2022/12/31 12:33:30;;;;;;;3.75;1.52;;;;;;;;;;5080369;28;20125;-61
2022/12/31 12:36:09;;;;;;;8.75;2.13;;;;;;;;;;5066895;28;20048;-62
2022/12/31 12:38:35;;;;;;;10.40;2.65;;;;;;;;;;5087693;28;20123;-62
2022/12/31 12:41:03;;;;;;;8.32;2.20;;;;;;;;;;5086866;28;20051;-61
2022/12/31 12:43:31;;;;;;;8.48;2.78;;;;;;;;;;5085929;28;20050;-62
2022/12/31 12:46:04;;;;;;;7.97;2.65;;;;;;;;;;5068872;28;20131;-62
2022/12/31 12:48:30;;;;;;;5.00;1.83;;;;;;;;;;5086813;28;20036;-62
2022/12/31 12:50:57;;;;;;;10.30;5.88;;;;;;;;;;5084756;28;20048;-62
2022/12/31 12:53:28;;;;;;;6.32;2.53;;;;;;;;;;5087124;28;20096;-61
2022/12/31 12:55:57;;;;;;;6.82;1.95;;;;;;;;;;5084346;28;20804;-61
2022/12/31 12:58:33;;;;;;;8.48;2.38;;;;;;;;;;5074804;28;20102;-61
2022/12/31 13:01:07;;;;;;;13.27;3.80;;;;;;;;;;5080565;28;20050;-61
2022/12/31 13:03:36;;;;;;;11.40;3.45;;;;;;;;;;5100157;28;20059;-61
2022/12/31 13:06:11;;;;;;;13.15;4.70;;;;;;;;;;5071675;28;20470;-61
2022/12/31 13:08:56;;;;;;;11.68;4.00;;;;;;;;;;5084772;28;20127;-61
2022/12/31 13:11:49;;;;;;;10.95;2.78;;;;;;;;;;5076077;28;20032;-60
2022/12/31 13:14:15;;;;;;;12.85;5.05;;;;;;;;;;5046645;28;20044;-61
2022/12/31 13:16:41;;;;;;;10.73;4.25;;;;;;;;;;5091774;28;20066;-60
2022/12/31 13:19:11;;;;;;;9.57;3.30;;;;;;;;;;5099515;28;20043;-61
2022/12/31 13:21:55;;;;;;;8.40;3.22;;;;;;;;;;5098111;28;20043;-61
2022/12/31 13:24:30;;;;;;;8.13;2.72;;;;;;;;;;5085258;28;20135;-61
2022/12/31 13:27:01;;;;;;;13.88;3.90;;;;;;;;;;5087749;28;20046;-61
2022/12/31 13:29:28;;;;;;;11.00;2.97;;;;;;;;;;5084131;28;20044;-61
2022/12/31 13:31:55;;;;;;;10.32;3.25;;;;;;;;;;5086762;28;20044;-61
2022/12/31 13:34:24;;;;;;;18.48;8.25;;;;;;;;;;5083856;28;20127;-61
2022/12/31 13:36:51;;;;;;;13.63;4.38;;;;;;;;;;5083581;28;20095;-61
2022/12/31 13:39:23;;;;;;;14.05;3.22;;;;;;;;;;5087121;28;20040;-61
2022/12/31 13:41:52;;;;;;;10.63;3.75;;;;;;;;;;5095760;28;20531;-61
2022/12/31 13:44:34;;;;;;;16.90;8.45;;;;;;;;;;5083639;28;20051;-61
2022/12/31 13:47:05;;;;;;;8.57;3.70;;;;;;;;;;5079435;28;20572;-61
2022/12/31 13:49:31;;;;;;;11.75;3.83;;;;;;;;;;5090462;28;20445;-61
2022/12/31 13:52:27;;;;;;;15.25;5.78;;;;;;;;;;5085492;28;20044;-60
2022/12/31 13:54:59;;;;;;;10.80;6.40;;;;;;;;;;5062996;28;20047;-61
2022/12/31 13:57:31;;;;;;;6.57;3.67;;;;;;;;;;5077512;28;20046;-61
2022/12/31 14:00:00;;;;;;;8.15;3.08;;;;;;;;;;5083494;28;20121;-61
2022/12/31 14:02:40;;;;;;;7.13;2.33;;;;;;;;;;5092195;28;20396;-61
2022/12/31 14:05:13;;;;;;;9.65;2.55;;;;;;;;;;5098815;28;20038;-60
2022/12/31 14:07:52;;;;;;;5.68;1.85;;;;;;;;;;5083018;28;20375;-60
2022/12/31 14:10:20;;;;;;;6.00;2.60;;;;;;;;;;5083985;28;20044;-61
2022/12/31 14:12:56;;;;;;;6.35;1.73;;;;;;;;;;5083930;28;20052;-61
2022/12/31 14:15:36;;;;;;;6.20;2.00;;;;;;;;;;5080980;28;20512;-61
2022/12/31 14:18:21;;;;;;;6.82;1.42;;;;;;;;;;5092460;28;20051;-61
2022/12/31 14:20:51;;;;;;;4.15;1.42;;;;;;;;;;5085553;28;20102;-61
2022/12/31 14:23:29;;;;;;;2.38;1.35;;;;;;;;;;5088144;28;20519;-61
2022/12/31 14:25:59;;;;;;;6.20;3.15;;;;;;;;;;5084930;28;20050;-60
2022/12/31 14:28:44;;;;;;;5.78;2.63;;;;;;;;;;5084282;28;20039;-61
2022/12/31 14:31:10;;;;;;;3.60;2.55;;;;;;;;;;5072264;28;20072;-61
2022/12/31 14:33:36;;;;;;;5.20;1.40;;;;;;;;;;5078957;28;20072;-61
2022/12/31 14:36:21;;;;;;;4.95;1.90;;;;;;;;;;5085819;28;20056;-61
2022/12/31 14:38:53;;;;;;;1.50;1.10;;;;;;;;;;5106124;28;20043;-61
2022/12/31 14:41:38;;;;;;;1.92;1.50;;;;;;;;;;5109986;28;20058;-61
2022/12/31 14:44:23;;;;;;;2.63;1.50;;;;;;;;;;5092033;28;20056;-61
2022/12/31 14:47:03;;;;;;;5.75;2.03;;;;;;;;;;5091864;28;20411;-61
2022/12/31 14:49:56;;;;;;;2.42;1.80;;;;;;;;;;5107871;28;20524;-61
2022/12/31 14:52:25;;;;;;;5.13;1.88;;;;;;;;;;5048320;28;20132;-61
2022/12/31 14:54:58;;;;;;;1.92;1.50;;;;;;;;;;5089858;28;20140;-61
2022/12/31 14:57:25;;;;;;;4.07;2.00;;;;;;;;;;5089386;28;20047;-61
2022/12/31 14:59:58;;;;;;;6.60;4.72;;;;;;;;;;5089940;28;20703;-61
2022/12/31 15:02:27;;;;;;;2.42;1.63;;;;;;;;;;5091026;28;20043;-61
2022/12/31 15:05:04;;;;;;;2.05;1.40;;;;;;;;;;5093840;28;20126;-61
2022/12/31 15:07:33;;;;;;;2.33;1.45;;;;;;;;;;5073436;28;20041;-61
2022/12/31 15:10:07;;;;;;;2.50;1.15;;;;;;;;;;5088690;28;20184;-60
2022/12/31 15:12:52;;;;;;;2.17;1.40;;;;;;;;;;5103243;28;20118;-61
2022/12/31 15:15:35;;;;;;;1.88;1.67;;;;;;;;;;5093072;28;20044;-61
2022/12/31 15:18:09;;;;;;;1.13;1.00;;;;;;;;;;5065349;28;20044;-61
2022/12/31 15:20:47;;;;;;;1.15;0.88;;;;;;;;;;5081774;28;20083;-61
2022/12/31 15:23:19;;;;;;;0.80;0.80;;;;;;;;;;5052209;28;20044;-61
2022/12/31 15:25:47;;;;;;;1.67;1.25;;;;;;;;;;5058421;28;20076;-61